メインページ
METAR-TAF:

METAR-TAF

空港 :

ベルリン, ドイツ

ベルリン・テーゲル空港

緯度: 52-34N, 経度: 013-19E, 海抜: 37m

現時点の気象観測

当レポートは36分前の11:20(UTC)に作成
東/南東の風 9kt、北/北東からの間で変化する
気温 12°C
湿度 35%
気圧 1031 hPa
視程10km以上
1,500メートル以下は雲なし、積乱雲なし

METAR: EDDT 241120Z 11009KT 030V170 CAVOK 12/M03 Q1031 NOSIG

時間: 12:56 (11:56 UTC)

予報

当レポートは56分前の11:00(UTC)に作成
予報は24日の 12時(UTC)から 25日の 12時(UTC)まで有効
の風 4kt
視程10km以上
1,500メートル以下は雲なし、積乱雲なし
25日の 05時(UTC)から 25日の 07時(UTC)まで徐々に
西/北西の風 6kt

TAF: EDDT 241100Z 2412/2512 01004KT CAVOK BECMG 2505/2507 29006KT

4,000以上の空港の気象観測と天気予報(METAR報とTAF報)

利用可能な観測所は地図上に黄色い丸と赤い丸で示す。

丸の上にカーソルを重ねると観測所名を参照できる。

次にクリックすると気象観測と天気予報を参照できる。

マップの切り替え:黒色「×」印の緑ボタンをクリックして拡大、「-」印の緑ボタンをクリックして縮小、緑色の三角印をクリックして隣りの地図に切り替え


METAR-TAF: